createdAt,value
2023-12-28T00:00:22.636Z,98462.41
2023-12-28T00:02:50.074Z,98456.69
2023-12-28T00:05:17.765Z,98465.22
2023-12-28T00:07:45.112Z,98472.13
2023-12-28T00:10:12.482Z,98480.88
2023-12-28T00:12:39.879Z,98481.00
2023-12-28T00:15:08.177Z,98479.78
2023-12-28T00:17:37.133Z,98485.00
2023-12-28T00:20:05.458Z,98487.59
2023-12-28T00:22:32.809Z,98491.41
2023-12-28T00:25:00.119Z,98498.34
2023-12-28T00:27:27.767Z,98504.47
2023-12-28T00:29:55.093Z,98497.16
2023-12-28T00:32:22.516Z,98494.81
2023-12-28T00:34:51.225Z,98494.13
2023-12-28T00:37:18.693Z,98493.41
2023-12-28T00:39:48.278Z,98493.34
2023-12-28T00:42:15.567Z,98492.63
2023-12-28T00:44:43.176Z,98494.13
2023-12-28T00:47:12.173Z,98498.22
2023-12-28T00:49:39.662Z,98503.06
2023-12-28T00:52:08.472Z,98496.13
2023-12-28T00:54:37.842Z,98496.22
2023-12-28T00:57:05.666Z,98498.03
2023-12-28T00:59:33.115Z,98491.41
2023-12-28T01:02:01.858Z,98495.63
2023-12-28T01:04:29.307Z,98499.03
2023-12-28T01:06:56.895Z,98500.03
2023-12-28T01:09:26.258Z,98513.38
2023-12-28T01:11:53.572Z,98505.88
2023-12-28T01:14:20.913Z,98505.25
2023-12-28T01:16:48.479Z,98514.50
2023-12-28T01:19:17.053Z,98523.72
2023-12-28T01:21:47.388Z,98510.47
2023-12-28T01:24:14.673Z,98520.91
2023-12-28T01:26:44.053Z,98525.22
2023-12-28T01:29:11.815Z,98522.09
2023-12-28T01:31:40.412Z,98529.91
2023-12-28T01:34:10.502Z,98534.50
2023-12-28T01:36:38.085Z,98536.50
2023-12-28T01:39:05.419Z,98540.63
2023-12-28T01:41:32.916Z,98536.50
2023-12-28T01:44:01.669Z,98527.50
2023-12-28T01:46:30.549Z,98525.00
2023-12-28T01:48:58.271Z,98526.69
2023-12-28T01:51:26.013Z,98532.69
2023-12-28T01:53:54.751Z,98532.78
2023-12-28T01:56:22.972Z,98529.56
2023-12-28T01:58:53.663Z,98536.88
2023-12-28T02:01:22.799Z,98535.09
2023-12-28T02:03:50.647Z,98535.31
2023-12-28T02:06:18.371Z,98535.31
2023-12-28T02:08:45.804Z,98532.97
2023-12-28T02:11:13.315Z,98549.63
2023-12-28T02:13:40.714Z,98555.34
2023-12-28T02:16:14.301Z,98544.09
2023-12-28T02:18:45.259Z,98562.16
2023-12-28T02:21:14.979Z,98571.28
2023-12-28T02:23:48.102Z,98567.88
2023-12-28T02:26:16.790Z,98559.84
2023-12-28T02:28:44.932Z,98549.63
2023-12-28T02:31:18.660Z,98565.47
2023-12-28T02:33:52.024Z,98565.53
2023-12-28T02:36:24.252Z,98570.56
2023-12-28T02:38:53.975Z,98568.94
2023-12-28T02:41:23.513Z,98585.50
2023-12-28T02:43:50.780Z,98579.09
2023-12-28T02:46:18.032Z,98578.28
2023-12-28T02:48:45.458Z,98582.56
2023-12-28T02:51:12.912Z,98575.94
2023-12-28T02:53:40.124Z,98575.94
2023-12-28T02:56:08.026Z,98579.53
2023-12-28T02:58:36.789Z,98572.75
2023-12-28T03:01:05.911Z,98582.56
2023-12-28T03:03:33.295Z,98576.16
2023-12-28T03:06:00.686Z,98579.53
2023-12-28T03:08:27.905Z,98581.16
2023-12-28T03:10:56.563Z,98580.25
2023-12-28T03:13:23.806Z,98581.06
2023-12-28T03:15:52.651Z,98568.03
2023-12-28T03:18:20.152Z,98577.16
2023-12-28T03:20:47.715Z,98587.78
2023-12-28T03:23:15.266Z,98593.69
2023-12-28T03:25:42.549Z,98597.06
2023-12-28T03:28:09.894Z,98594.56
2023-12-28T03:30:37.306Z,98597.97
2023-12-28T03:33:06.186Z,98593.97
2023-12-28T03:35:33.487Z,98589.97
2023-12-28T03:40:28.817Z,98589.84
2023-12-28T03:42:56.192Z,98583.88
2023-12-28T03:45:23.419Z,98599.69
2023-12-28T03:47:52.524Z,98603.91
2023-12-28T03:50:21.425Z,98598.16
2023-12-28T03:52:48.841Z,98612.91
2023-12-28T03:55:16.268Z,98609.72
2023-12-28T03:57:43.973Z,98605.59
2023-12-28T04:00:12.166Z,98599.78
2023-12-28T04:02:42.243Z,98604.00
2023-12-28T04:05:09.835Z,98606.56
2023-12-28T04:07:39.594Z,98613.41
2023-12-28T04:10:07.884Z,98621.00
2023-12-28T04:12:35.346Z,98610.38
2023-12-28T04:15:02.839Z,98621.19
2023-12-28T04:17:32.012Z,98620.41
2023-12-28T04:19:59.398Z,98623.78
2023-12-28T04:22:26.938Z,98626.28
2023-12-28T04:24:56.635Z,98633.88
2023-12-28T04:27:24.045Z,98634.00
2023-12-28T04:29:51.872Z,98634.00
2023-12-28T04:32:19.128Z,98625.97
2023-12-28T04:34:46.461Z,98640.00
2023-12-28T04:37:13.792Z,98634.91
2023-12-28T04:39:42.096Z,98644.19
2023-12-28T04:42:10.929Z,98640.06
2023-12-28T04:44:39.624Z,98647.41
2023-12-28T04:47:08.379Z,98644.03
2023-12-28T04:49:37.512Z,98648.84
2023-12-28T04:52:05.401Z,98641.03
2023-12-28T04:54:34.007Z,98646.84
2023-12-28T04:57:01.335Z,98638.44
2023-12-28T04:59:30.117Z,98647.06
2023-12-28T05:01:57.571Z,98651.16
2023-12-28T05:04:25.215Z,98643.81
2023-12-28T05:06:55.545Z,98653.66
2023-12-28T05:09:22.789Z,98667.63
2023-12-28T05:11:50.106Z,98665.13
2023-12-28T05:14:17.426Z,98664.03
2023-12-28T05:16:46.060Z,98675.47
2023-12-28T05:19:13.614Z,98672.78
2023-12-28T05:21:40.948Z,98671.28
2023-12-28T05:24:08.428Z,98675.38
2023-12-28T05:26:35.827Z,98678.66
2023-12-28T05:29:03.334Z,98684.69
2023-12-28T05:31:30.834Z,98684.59
2023-12-28T05:33:59.859Z,98692.81
2023-12-28T05:36:27.193Z,98687.00
2023-12-28T05:38:54.597Z,98682.19
2023-12-28T05:41:22.155Z,98689.63
2023-12-28T05:43:49.374Z,98682.25
2023-12-28T05:46:16.586Z,98682.19
2023-12-28T05:48:43.954Z,98685.41
2023-12-28T05:51:13.069Z,98690.22
2023-12-28T05:53:40.380Z,98701.94
2023-12-28T05:56:07.884Z,98706.88
2023-12-28T05:58:35.159Z,98700.97
2023-12-28T06:01:02.633Z,98702.66
2023-12-28T06:03:30.572Z,98707.69
2023-12-28T06:05:57.969Z,98708.50
2023-12-28T06:08:28.232Z,98727.53
2023-12-28T06:10:55.804Z,98727.34
2023-12-28T06:13:23.038Z,98726.44
2023-12-28T06:15:50.407Z,98723.06
2023-12-28T06:18:17.903Z,98734.84
2023-12-28T06:20:45.281Z,98741.59
2023-12-28T06:23:12.816Z,98741.69
2023-12-28T06:25:43.970Z,98758.41
2023-12-28T06:28:12.248Z,98762.41
2023-12-28T06:30:41.018Z,98767.44
2023-12-28T06:33:09.037Z,98767.53
2023-12-28T06:35:36.368Z,98775.88
2023-12-28T06:38:04.130Z,98782.47
2023-12-28T06:40:31.460Z,98785.91
2023-12-28T06:43:00.924Z,98789.09
2023-12-28T06:45:29.677Z,98788.94
2023-12-28T06:48:00.547Z,98790.78
2023-12-28T06:50:28.103Z,98797.22
2023-12-28T06:52:55.593Z,98800.19
2023-12-28T06:55:22.794Z,98800.03
2023-12-28T06:57:50.066Z,98791.59
2023-12-28T07:00:19.237Z,98786.78
2023-12-28T07:02:46.519Z,98796.78
2023-12-28T07:05:15.267Z,98798.41
2023-12-28T07:07:42.898Z,98799.50
2023-12-28T07:10:10.296Z,98801.63
2023-12-28T07:12:37.800Z,98807.28
2023-12-28T07:15:06.226Z,98810.13
2023-12-28T07:17:34.932Z,98813.63
2023-12-28T07:20:02.237Z,98814.53
2023-12-28T07:22:31.830Z,98832.78
2023-12-28T07:25:00.318Z,98825.97
2023-12-28T07:27:27.762Z,98810.84
2023-12-28T07:29:55.107Z,98828.13
2023-12-28T07:32:24.203Z,98829.56
2023-12-28T07:34:53.305Z,98833.56
2023-12-28T07:37:20.644Z,98836.63
2023-12-28T07:39:48.044Z,98838.84
2023-12-28T07:42:16.463Z,98850.50
2023-12-28T07:44:44.258Z,98846.91
2023-12-28T07:47:12.917Z,98848.44
2023-12-28T07:49:40.222Z,98851.56
2023-12-28T07:52:08.905Z,98857.28
2023-12-28T07:54:36.230Z,98863.00
2023-12-28T07:57:03.942Z,98859.69
2023-12-28T07:59:31.215Z,98851.81
2023-12-28T08:01:58.398Z,98859.34
2023-12-28T08:04:25.953Z,98860.13
2023-12-28T08:06:53.358Z,98866.78
2023-12-28T08:09:21.959Z,98873.28
2023-12-28T08:11:49.357Z,98867.59
2023-12-28T08:14:16.737Z,98867.47
2023-12-28T08:16:44.298Z,98869.66
2023-12-28T08:19:12.313Z,98881.09
2023-12-28T08:21:39.704Z,98881.72
2023-12-28T08:24:07.145Z,98882.97
2023-12-28T08:26:35.707Z,98885.13
2023-12-28T08:29:03.442Z,98893.63
2023-12-28T08:31:31.212Z,98884.38
2023-12-28T08:33:58.896Z,98886.38
2023-12-28T08:36:26.489Z,98900.59
2023-12-28T08:38:53.778Z,98895.59
2023-12-28T08:41:21.267Z,98901.88
2023-12-28T08:43:49.996Z,98905.06
2023-12-28T08:46:17.913Z,98912.50
2023-12-28T08:48:45.357Z,98903.28
2023-12-28T08:51:12.793Z,98909.94
2023-12-28T08:53:40.773Z,98913.78
2023-12-28T08:56:15.113Z,98908.63
2023-12-28T08:58:42.616Z,98904.16
2023-12-28T09:01:17.472Z,98918.41
2023-12-28T09:03:45.271Z,98916.00
2023-12-28T09:06:12.656Z,98909.56
2023-12-28T09:08:42.752Z,98916.38
2023-12-28T09:11:11.580Z,98911.00
2023-12-28T09:13:39.681Z,98902.22
2023-12-28T09:16:08.330Z,98914.78
2023-12-28T09:18:40.376Z,98919.06
2023-12-28T09:21:09.227Z,98907.59
2023-12-28T09:23:37.149Z,98923.72
2023-12-28T09:26:05.765Z,98931.78
2023-12-28T09:28:33.457Z,98931.78
2023-12-28T09:31:01.410Z,98930.28
2023-12-28T09:33:29.064Z,98914.69
2023-12-28T09:35:57.846Z,98936.38
2023-12-28T09:38:25.122Z,98929.38
2023-12-28T09:40:54.251Z,98933.75
2023-12-28T09:43:25.080Z,98935.03
2023-12-28T09:45:52.875Z,98937.72
2023-12-28T09:48:23.435Z,98921.97
2023-12-28T09:50:52.260Z,98938.75
2023-12-28T09:53:24.074Z,98941.41
2023-12-28T09:55:55.318Z,98928.84
2023-12-28T09:58:23.622Z,98932.13
2023-12-28T10:00:52.036Z,98934.94
2023-12-28T10:03:20.010Z,98952.09
2023-12-28T10:05:48.628Z,98946.06
2023-12-28T10:08:17.204Z,98945.47
2023-12-28T10:10:52.506Z,98960.94
2023-12-28T10:13:19.988Z,98942.16
2023-12-28T10:15:47.543Z,98938.72
2023-12-28T10:18:14.854Z,98937.00
2023-12-28T10:20:42.147Z,98948.22
2023-12-28T10:23:11.327Z,98944.19
2023-12-28T10:25:38.621Z,98936.34
2023-12-28T10:28:07.905Z,98937.38
2023-12-28T10:30:35.308Z,98937.06
2023-12-28T10:33:06.000Z,98937.38
2023-12-28T10:35:33.800Z,98937.84
2023-12-28T10:38:04.824Z,98935.31
2023-12-28T10:40:38.013Z,98943.50
2023-12-28T10:43:10.202Z,98932.94
2023-12-28T10:45:40.788Z,98941.06
2023-12-28T10:48:09.696Z,98943.78
2023-12-28T10:50:41.218Z,98944.34
2023-12-28T10:53:25.700Z,98956.94
2023-12-28T10:56:03.357Z,98939.75
2023-12-28T10:58:40.741Z,98935.28
2023-12-28T11:01:10.959Z,98944.25
2023-12-28T11:03:42.290Z,98944.59
2023-12-28T11:06:10.684Z,98948.53
2023-12-28T11:08:44.021Z,98943.50
2023-12-28T11:11:13.133Z,98943.97
2023-12-28T11:13:42.721Z,98944.34
2023-12-28T11:16:10.823Z,98943.00
2023-12-28T11:18:38.366Z,98935.56
2023-12-28T11:21:07.671Z,98947.84
2023-12-28T11:23:36.113Z,98952.69
2023-12-28T11:26:03.829Z,98955.72
2023-12-28T11:28:31.583Z,98942.28
2023-12-28T11:31:00.570Z,98945.69
2023-12-28T11:33:32.465Z,98944.72
2023-12-28T11:35:59.714Z,98953.63
2023-12-28T11:38:28.097Z,98956.81
2023-12-28T11:40:58.497Z,98944.91
2023-12-28T11:43:28.597Z,98951.03
2023-12-28T11:45:56.763Z,98953.97
2023-12-28T11:48:26.997Z,98956.16
2023-12-28T11:50:59.014Z,98955.78
2023-12-28T11:53:27.144Z,98961.53
2023-12-28T11:56:04.512Z,98971.03
2023-12-28T11:58:32.014Z,98971.22
2023-12-28T12:00:59.382Z,98978.75
2023-12-28T12:03:28.432Z,98978.56
2023-12-28T12:05:58.423Z,98966.63
2023-12-28T12:08:25.905Z,98994.25
2023-12-28T12:11:02.192Z,98989.41
2023-12-28T12:13:29.761Z,98986.97
2023-12-28T12:15:58.267Z,98988.16
2023-12-28T12:18:27.904Z,98987.78
2023-12-28T12:20:55.610Z,98995.69
2023-12-28T12:23:22.828Z,98984.94
2023-12-28T12:25:50.459Z,98998.84
2023-12-28T12:28:17.783Z,99000.69
2023-12-28T12:30:52.549Z,98988.50
2023-12-28T12:33:20.204Z,99004.19
2023-12-28T12:35:49.337Z,99000.63
2023-12-28T12:38:17.812Z,99005.72
2023-12-28T12:40:45.301Z,99011.81
2023-12-28T12:43:12.865Z,99007.59
2023-12-28T12:45:41.007Z,99020.13
2023-12-28T12:48:08.844Z,99016.09
2023-12-28T12:50:38.158Z,99028.41
2023-12-28T12:53:07.679Z,99038.88
2023-12-28T12:55:35.113Z,99036.00
2023-12-28T12:58:02.906Z,99025.88
2023-12-28T13:00:30.426Z,99022.56
2023-12-28T13:03:00.933Z,99019.41
2023-12-28T13:05:30.369Z,99026.06
2023-12-28T13:07:57.681Z,99037.09
2023-12-28T13:10:26.262Z,99038.97
2023-12-28T13:12:54.688Z,99030.97
2023-12-28T13:15:22.093Z,99041.97
2023-12-28T13:17:49.694Z,99041.44
2023-12-28T13:20:17.071Z,99032.75
2023-12-28T13:22:44.266Z,99042.28
2023-12-28T13:25:12.094Z,99045.81
2023-12-28T13:27:40.816Z,99057.44
2023-12-28T13:30:09.104Z,99044.91
2023-12-28T13:32:36.522Z,99051.44
2023-12-28T13:35:04.586Z,99070.69
2023-12-28T13:37:32.616Z,99051.91
2023-12-28T13:40:00.544Z,99054.69
2023-12-28T13:42:28.595Z,99059.47
2023-12-28T13:44:57.286Z,99049.09
2023-12-28T13:47:24.612Z,99047.47
2023-12-28T13:49:52.148Z,99052.28
2023-12-28T13:52:19.479Z,99050.53
2023-12-28T13:54:47.077Z,99049.53
2023-12-28T13:57:14.517Z,99043.88
2023-12-28T13:59:41.779Z,99054.25
2023-12-28T14:02:10.466Z,99039.72
2023-12-28T14:04:37.905Z,99042.00
2023-12-28T14:07:05.597Z,99009.84
2023-12-28T14:09:34.331Z,99033.63
2023-12-28T14:12:01.563Z,99023.94
2023-12-28T14:14:28.805Z,99027.91
2023-12-28T14:16:56.975Z,99027.34
2023-12-28T14:19:25.674Z,99016.53
2023-12-28T14:21:53.491Z,99030.84
2023-12-28T14:24:21.413Z,99044.16
2023-12-28T14:26:52.388Z,99033.41
2023-12-28T14:29:20.148Z,99043.94
2023-12-28T14:31:48.332Z,99041.63
2023-12-28T14:34:16.576Z,99045.06
2023-12-28T14:36:52.545Z,99039.72
2023-12-28T14:39:20.300Z,99048.44
2023-12-28T14:41:47.757Z,99025.03
2023-12-28T14:44:15.408Z,99029.13
2023-12-28T14:46:42.686Z,99045.63
2023-12-28T14:49:10.590Z,99039.63
2023-12-28T14:51:38.180Z,99018.97
2023-12-28T14:54:07.051Z,99022.50
2023-12-28T14:56:41.081Z,99023.78
2023-12-28T14:59:16.233Z,99017.44
2023-12-28T15:01:43.570Z,99021.88
2023-12-28T15:04:11.024Z,99021.88
2023-12-28T15:06:38.564Z,99031.91
2023-12-28T15:09:07.447Z,99033.72
2023-12-28T15:11:45.423Z,99034.59
2023-12-28T15:14:17.798Z,99032.53
2023-12-28T15:16:46.320Z,99032.34
2023-12-28T15:19:15.024Z,99031.22
2023-12-28T15:21:43.075Z,99013.31
2023-12-28T15:24:12.914Z,99016.22
2023-12-28T15:26:40.708Z,99014.44
2023-12-28T15:29:08.049Z,99016.03
2023-12-28T15:31:35.638Z,99002.56
2023-12-28T15:34:03.318Z,99010.88
2023-12-28T15:36:30.750Z,99006.00
2023-12-28T15:38:58.006Z,98998.50
2023-12-28T15:41:26.766Z,99004.25
2023-12-28T15:43:54.110Z,99009.19
2023-12-28T15:46:21.723Z,99005.13
2023-12-28T15:48:49.046Z,99002.06
2023-12-28T15:51:16.686Z,99000.47
2023-12-28T15:53:44.223Z,98993.09
2023-12-28T15:56:18.378Z,98997.22
2023-12-28T15:58:48.710Z,99005.56
2023-12-28T16:01:16.836Z,99002.97
2023-12-28T16:03:44.293Z,99005.63
2023-12-28T16:06:12.403Z,98994.91
2023-12-28T16:08:39.771Z,98994.16
2023-12-28T16:11:07.484Z,98994.25
2023-12-28T16:13:35.595Z,99001.84
2023-12-28T16:16:09.589Z,98995.38
2023-12-28T16:18:40.823Z,98989.72
2023-12-28T16:21:10.233Z,98989.09
2023-12-28T16:23:38.557Z,98975.69
2023-12-28T16:26:06.372Z,98985.84
2023-12-28T16:28:35.398Z,98986.41
2023-12-28T16:31:04.533Z,98991.03
2023-12-28T16:33:32.059Z,98991.03
2023-12-28T16:35:59.535Z,99007.09
2023-12-28T16:38:26.719Z,98996.81
2023-12-28T16:40:54.358Z,99001.25
2023-12-28T16:43:22.601Z,99011.91
2023-12-28T16:45:50.705Z,99001.19
2023-12-28T16:48:19.692Z,98994.50
2023-12-28T16:50:47.103Z,99005.94
2023-12-28T16:53:14.492Z,99003.03
2023-12-28T16:55:41.941Z,99000.41
2023-12-28T16:58:09.663Z,99004.19
2023-12-28T17:00:37.954Z,99007.50
2023-12-28T17:03:06.091Z,99010.16
2023-12-28T17:05:36.008Z,99002.66
2023-12-28T17:08:03.819Z,99002.81
2023-12-28T17:10:32.047Z,98995.47
2023-12-28T17:13:00.168Z,98998.59
2023-12-28T17:15:28.477Z,99008.53
2023-12-28T17:17:57.110Z,99009.44
2023-12-28T17:20:25.283Z,99011.84
2023-12-28T17:23:01.540Z,99006.13
2023-12-28T17:25:36.371Z,99003.09
2023-12-28T17:28:06.999Z,98993.09
2023-12-28T17:30:37.289Z,98998.28
2023-12-28T17:33:05.834Z,98985.53
2023-12-28T17:35:33.902Z,98986.41
2023-12-28T17:38:03.463Z,98990.94
2023-12-28T17:40:32.209Z,98981.63
2023-12-28T17:43:05.006Z,98981.31
2023-12-28T17:45:39.494Z,98983.25
2023-12-28T17:48:09.067Z,98984.88
2023-12-28T17:50:38.621Z,98967.75
2023-12-28T17:53:09.104Z,98968.00
2023-12-28T17:55:36.425Z,98971.63
2023-12-28T17:58:04.132Z,98952.41
2023-12-28T18:00:31.711Z,98957.75
2023-12-28T18:02:58.996Z,98948.00
2023-12-28T18:05:26.722Z,98965.97
2023-12-28T18:07:53.999Z,98960.09
2023-12-28T18:10:23.419Z,98945.16
2023-12-28T18:12:50.693Z,98963.63
2023-12-28T18:15:18.106Z,98946.44
2023-12-28T18:17:45.605Z,98952.50
2023-12-28T18:20:13.357Z,98947.25
2023-12-28T18:22:40.705Z,98951.63
2023-12-28T18:25:08.849Z,98945.69
2023-12-28T18:27:37.733Z,98934.19
2023-12-28T18:30:06.523Z,98935.56
2023-12-28T18:32:34.104Z,98931.13
2023-12-28T18:35:01.805Z,98933.69
2023-12-28T18:37:30.987Z,98924.75
2023-12-28T18:39:58.522Z,98910.63
2023-12-28T18:42:25.917Z,98913.94
2023-12-28T18:44:54.501Z,98920.94
2023-12-28T18:47:22.092Z,98921.66
2023-12-28T18:49:50.983Z,98913.53
2023-12-28T18:52:18.321Z,98916.75
2023-12-28T18:54:45.642Z,98911.09
2023-12-28T18:57:13.050Z,98891.91
2023-12-28T18:59:40.425Z,98904.97
2023-12-28T19:02:09.158Z,98899.34
2023-12-28T19:04:36.823Z,98891.03
2023-12-28T19:07:04.525Z,98899.22
2023-12-28T19:09:32.236Z,98894.41
2023-12-28T19:11:59.487Z,98902.97
2023-12-28T19:14:26.934Z,98898.34
2023-12-28T19:16:54.278Z,98897.38
2023-12-28T19:19:22.922Z,98884.63
2023-12-28T19:21:50.958Z,98880.28
2023-12-28T19:24:18.351Z,98892.16
2023-12-28T19:26:45.687Z,98889.72
2023-12-28T19:29:15.114Z,98884.72
2023-12-28T19:31:43.333Z,98881.34
2023-12-28T19:34:10.702Z,98877.78
2023-12-28T19:36:39.654Z,98866.16
2023-12-28T19:39:07.504Z,98874.97
2023-12-28T19:41:35.264Z,98874.22
2023-12-28T19:44:04.644Z,98858.66
2023-12-28T19:46:50.212Z,98867.06
2023-12-28T19:49:17.871Z,98867.06
2023-12-28T19:51:46.518Z,98864.56
2023-12-28T19:54:14.151Z,98862.72
2023-12-28T19:56:42.548Z,98856.97
2023-12-28T19:59:09.829Z,98855.28
2023-12-28T20:01:37.281Z,98851.81
2023-12-28T20:04:04.978Z,98846.97
2023-12-28T20:06:32.394Z,98855.84
2023-12-28T20:09:01.076Z,98865.09
2023-12-28T20:11:28.400Z,98851.72
2023-12-28T20:13:55.810Z,98853.75
2023-12-28T20:16:23.103Z,98849.56
2023-12-28T20:18:50.894Z,98854.72
2023-12-28T20:21:19.947Z,98853.91
2023-12-28T20:23:47.533Z,98853.50
2023-12-28T20:26:16.311Z,98859.31
2023-12-28T20:28:43.865Z,98861.06
2023-12-28T20:31:11.673Z,98857.13
2023-12-28T20:33:39.224Z,98853.19
2023-12-28T20:36:07.277Z,98863.97
2023-12-28T20:38:34.525Z,98845.50
2023-12-28T20:41:04.084Z,98842.13
2023-12-28T20:43:34.279Z,98834.31
2023-12-28T20:46:02.234Z,98819.31
2023-12-28T20:48:29.701Z,98825.59
2023-12-28T20:50:56.920Z,98815.44
2023-12-28T20:53:24.337Z,98813.66
2023-12-28T20:55:51.723Z,98807.06
2023-12-28T20:58:18.961Z,98819.31
2023-12-28T21:00:47.748Z,98805.66
2023-12-28T21:03:15.061Z,98809.06
2023-12-28T21:05:42.284Z,98813.81
2023-12-28T21:08:09.759Z,98810.50
2023-12-28T21:10:38.653Z,98815.44
2023-12-28T21:13:06.522Z,98806.38
2023-12-28T21:15:33.965Z,98785.75
2023-12-28T21:18:12.610Z,98789.19
2023-12-28T21:21:01.099Z,98783.63
2023-12-28T21:23:35.272Z,98789.44
2023-12-28T21:26:02.596Z,98781.06
2023-12-28T21:28:30.047Z,98772.06
2023-12-28T21:30:57.765Z,98765.69
2023-12-28T21:33:26.911Z,98762.44
2023-12-28T21:35:54.283Z,98755.81
2023-12-28T21:38:21.778Z,98758.56
2023-12-28T21:40:49.215Z,98757.88
2023-12-28T21:43:17.478Z,98767.88
2023-12-28T21:45:47.010Z,98769.47
2023-12-28T21:48:14.955Z,98774.31
2023-12-28T21:50:43.892Z,98778.50
2023-12-28T21:53:13.006Z,98770.25
2023-12-28T21:55:40.605Z,98780.13
2023-12-28T21:58:13.354Z,98779.31
2023-12-28T22:00:40.892Z,98786.88
2023-12-28T22:03:08.286Z,98773.19
2023-12-28T22:05:37.761Z,98772.63
2023-12-28T22:08:07.205Z,98759.56
2023-12-28T22:10:35.466Z,98766.25
2023-12-28T22:13:02.825Z,98766.06
2023-12-28T22:15:30.040Z,98755.25
2023-12-28T22:17:58.206Z,98765.94
2023-12-28T22:20:25.708Z,98741.97
2023-12-28T22:22:53.136Z,98743.00
2023-12-28T22:25:22.006Z,98750.63
2023-12-28T22:27:49.260Z,98752.13
2023-12-28T22:30:18.192Z,98737.06
2023-12-28T22:32:48.426Z,98739.94
2023-12-28T22:35:15.824Z,98733.50
2023-12-28T22:37:43.382Z,98745.94
2023-12-28T22:40:12.206Z,98724.06
2023-12-28T22:42:40.889Z,98719.25
2023-12-28T22:45:08.672Z,98719.06
2023-12-28T22:47:36.425Z,98706.59
2023-12-28T22:50:04.239Z,98712.31
2023-12-28T22:52:32.144Z,98723.66
2023-12-28T22:54:59.550Z,98714.31
2023-12-28T22:57:27.158Z,98707.63
2023-12-28T22:59:55.900Z,98704.31
2023-12-28T23:02:23.508Z,98712.69
2023-12-28T23:04:55.852Z,98705.03
2023-12-28T23:07:25.579Z,98706.31
2023-12-28T23:09:53.520Z,98704.53
2023-12-28T23:12:21.085Z,98688.25
2023-12-28T23:14:49.357Z,98692.38
2023-12-28T23:17:18.101Z,98691.47
2023-12-28T23:19:46.420Z,98688.97
2023-12-28T23:22:13.984Z,98684.59
2023-12-28T23:24:42.005Z,98670.56
2023-12-28T23:27:10.179Z,98677.44
2023-12-28T23:29:39.950Z,98654.31
2023-12-28T23:32:07.692Z,98652.38
2023-12-28T23:34:36.735Z,98652.50
2023-12-28T23:37:04.666Z,98645.13
2023-12-28T23:39:32.049Z,98626.16
2023-12-28T23:41:59.470Z,98626.88
2023-12-28T23:44:26.719Z,98631.09
2023-12-28T23:46:54.354Z,98629.66
2023-12-28T23:49:21.802Z,98629.31
2023-12-28T23:51:50.791Z,98623.03
2023-12-28T23:54:18.145Z,98619.66
2023-12-28T23:56:45.730Z,98606.78
2023-12-28T23:59:12.967Z,98601.06
